Airport View

Enter AWOS ICAO identifier for current METAR.

ex. KFNL

KSTL 212251Z 18010KT 10SM FEW040 SCT075 BKN200 28/20 A3005 RMK AO2 SLP163 T02830200 $

21 Sep 2019 23:52

Phone: 314-890-4790

Other Area AWOS: KSET - KSUS - KCPS - KALN

KSTL 212057Z 2121/2224 18013G21KT P6SM VCTS SCT040CB BKN070 FM220100 18011KT P6SM BKN120 FM221600 20011G17KT P6SM VCTS SCT040CB BKN090 FM221800 22011G17KT 4SM -TSRA BR SCT040CB OVC090